sensor_id;sensor_type;location;lat;lon;timestamp;P1;durP1;ratioP1;P2;durP2;ratioP2
17404;SDS011;8820;54.604;18.226;2023-01-10T00:02:17;24.10;;;16.90;;
17404;SDS011;8820;54.604;18.226;2023-01-10T00:04:46;27.27;;;17.57;;
17404;SDS011;8820;54.604;18.226;2023-01-10T00:07:16;29.10;;;17.80;;
17404;SDS011;8820;54.604;18.226;2023-01-10T00:09:45;28.10;;;19.13;;
17404;SDS011;8820;54.604;18.226;2023-01-10T00:12:14;25.17;;;16.90;;
17404;SDS011;8820;54.604;18.226;2023-01-10T00:15:00;28.87;;;18.33;;
17404;SDS011;8820;54.604;18.226;2023-01-10T00:17:29;26.37;;;16.57;;
17404;SDS011;8820;54.604;18.226;2023-01-10T00:19:57;23.40;;;17.40;;
17404;SDS011;8820;54.604;18.226;2023-01-10T00:22:27;25.50;;;16.77;;
17404;SDS011;8820;54.604;18.226;2023-01-10T00:24:56;22.73;;;15.33;;
17404;SDS011;8820;54.604;18.226;2023-01-10T00:27:25;25.40;;;16.07;;
17404;SDS011;8820;54.604;18.226;2023-01-10T00:29:54;22.37;;;15.67;;
17404;SDS011;8820;54.604;18.226;2023-01-10T00:32:26;23.83;;;16.30;;
17404;SDS011;8820;54.604;18.226;2023-01-10T00:34:54;23.37;;;15.90;;
17404;SDS011;8820;54.604;18.226;2023-01-10T00:37:23;24.17;;;15.87;;
17404;SDS011;8820;54.604;18.226;2023-01-10T00:39:53;20.47;;;14.80;;
17404;SDS011;8820;54.604;18.226;2023-01-10T00:42:22;20.97;;;14.80;;
17404;SDS011;8820;54.604;18.226;2023-01-10T00:45:09;21.80;;;14.33;;
17404;SDS011;8820;54.604;18.226;2023-01-10T00:47:38;22.07;;;14.30;;
17404;SDS011;8820;54.604;18.226;2023-01-10T00:50:07;19.50;;;13.57;;
17404;SDS011;8820;54.604;18.226;2023-01-10T00:52:36;21.30;;;13.70;;
17404;SDS011;8820;54.604;18.226;2023-01-10T00:55:07;20.87;;;14.63;;
17404;SDS011;8820;54.604;18.226;2023-01-10T00:57:37;19.17;;;13.17;;
17404;SDS011;8820;54.604;18.226;2023-01-10T01:00:06;21.13;;;14.40;;
17404;SDS011;8820;54.604;18.226;2023-01-10T01:02:36;24.73;;;13.60;;
17404;SDS011;8820;54.604;18.226;2023-01-10T01:05:05;19.10;;;13.27;;
17404;SDS011;8820;54.604;18.226;2023-01-10T01:07:34;19.27;;;13.30;;
17404;SDS011;8820;54.604;18.226;2023-01-10T01:10:03;17.27;;;12.70;;
17404;SDS011;8820;54.604;18.226;2023-01-10T01:12:51;20.17;;;14.10;;
17404;SDS011;8820;54.604;18.226;2023-01-10T01:15:21;18.10;;;13.20;;
17404;SDS011;8820;54.604;18.226;2023-01-10T01:17:50;17.17;;;12.77;;
17404;SDS011;8820;54.604;18.226;2023-01-10T01:20:19;16.93;;;12.43;;
17404;SDS011;8820;54.604;18.226;2023-01-10T01:22:48;16.03;;;12.63;;
17404;SDS011;8820;54.604;18.226;2023-01-10T01:25:32;16.17;;;12.47;;
17404;SDS011;8820;54.604;18.226;2023-01-10T01:28:02;16.17;;;12.00;;
17404;SDS011;8820;54.604;18.226;2023-01-10T01:30:31;18.13;;;13.00;;
17404;SDS011;8820;54.604;18.226;2023-01-10T01:33:00;18.03;;;12.47;;
17404;SDS011;8820;54.604;18.226;2023-01-10T01:35:29;17.40;;;11.93;;
17404;SDS011;8820;54.604;18.226;2023-01-10T01:37:59;17.77;;;12.43;;
17404;SDS011;8820;54.604;18.226;2023-01-10T01:40:27;16.67;;;11.63;;
17404;SDS011;8820;54.604;18.226;2023-01-10T01:42:56;21.10;;;11.87;;
17404;SDS011;8820;54.604;18.226;2023-01-10T01:45:38;15.77;;;11.57;;
17404;SDS011;8820;54.604;18.226;2023-01-10T01:48:17;16.17;;;12.10;;
17404;SDS011;8820;54.604;18.226;2023-01-10T01:51:04;21.53;;;13.80;;
17404;SDS011;8820;54.604;18.226;2023-01-10T01:53:39;23.77;;;15.57;;
17404;SDS011;8820;54.604;18.226;2023-01-10T01:56:12;25.87;;;15.40;;
17404;SDS011;8820;54.604;18.226;2023-01-10T01:58:45;21.63;;;15.27;;
17404;SDS011;8820;54.604;18.226;2023-01-10T02:01:18;23.67;;;14.50;;
17404;SDS011;8820;54.604;18.226;2023-01-10T02:03:50;19.20;;;13.00;;
17404;SDS011;8820;54.604;18.226;2023-01-10T02:06:22;18.73;;;12.07;;
17404;SDS011;8820;54.604;18.226;2023-01-10T02:08:54;15.20;;;10.37;;
17404;SDS011;8820;54.604;18.226;2023-01-10T02:11:27;16.40;;;11.07;;
17404;SDS011;8820;54.604;18.226;2023-01-10T02:13:57;15.50;;;10.73;;
17404;SDS011;8820;54.604;18.226;2023-01-10T02:16:28;15.83;;;11.10;;
17404;SDS011;8820;54.604;18.226;2023-01-10T02:18:57;17.93;;;10.97;;
17404;SDS011;8820;54.604;18.226;2023-01-10T02:21:36;15.83;;;10.63;;
17404;SDS011;8820;54.604;18.226;2023-01-10T02:27:19;16.37;;;11.17;;
17404;SDS011;8820;54.604;18.226;2023-01-10T02:33:14;19.70;;;11.10;;
17404;SDS011;8820;54.604;18.226;2023-01-10T02:35:52;17.77;;;10.50;;
17404;SDS011;8820;54.604;18.226;2023-01-10T02:38:35;16.17;;;10.57;;
17404;SDS011;8820;54.604;18.226;2023-01-10T02:41:15;15.83;;;10.80;;
17404;SDS011;8820;54.604;18.226;2023-01-10T02:43:49;15.37;;;11.33;;
17404;SDS011;8820;54.604;18.226;2023-01-10T02:46:24;14.10;;;10.63;;
17404;SDS011;8820;54.604;18.226;2023-01-10T02:48:56;17.83;;;11.07;;
17404;SDS011;8820;54.604;18.226;2023-01-10T02:51:25;19.57;;;12.00;;
17404;SDS011;8820;54.604;18.226;2023-01-10T02:53:56;16.07;;;10.80;;
17404;SDS011;8820;54.604;18.226;2023-01-10T03:03:01;15.20;;;11.43;;
17404;SDS011;8820;54.604;18.226;2023-01-10T03:06:02;17.50;;;10.83;;
17404;SDS011;8820;54.604;18.226;2023-01-10T03:08:42;18.27;;;10.73;;
17404;SDS011;8820;54.604;18.226;2023-01-10T03:11:16;14.43;;;11.03;;
17404;SDS011;8820;54.604;18.226;2023-01-10T03:14:05;19.17;;;11.07;;
17404;SDS011;8820;54.604;18.226;2023-01-10T03:16:39;14.70;;;10.97;;
17404;SDS011;8820;54.604;18.226;2023-01-10T03:19:12;17.30;;;12.07;;
17404;SDS011;8820;54.604;18.226;2023-01-10T03:21:46;17.40;;;10.60;;
17404;SDS011;8820;54.604;18.226;2023-01-10T03:24:19;16.07;;;10.47;;
17404;SDS011;8820;54.604;18.226;2023-01-10T03:26:55;15.37;;;11.23;;
17404;SDS011;8820;54.604;18.226;2023-01-10T03:29:31;16.63;;;10.10;;
17404;SDS011;8820;54.604;18.226;2023-01-10T03:32:09;16.83;;;10.87;;
17404;SDS011;8820;54.604;18.226;2023-01-10T03:34:40;17.77;;;11.47;;
17404;SDS011;8820;54.604;18.226;2023-01-10T03:37:12;15.57;;;10.40;;
17404;SDS011;8820;54.604;18.226;2023-01-10T03:39:45;19.43;;;10.83;;
17404;SDS011;8820;54.604;18.226;2023-01-10T03:42:22;17.57;;;10.57;;
17404;SDS011;8820;54.604;18.226;2023-01-10T03:45:16;17.60;;;11.87;;
17404;SDS011;8820;54.604;18.226;2023-01-10T03:47:49;19.10;;;11.70;;
17404;SDS011;8820;54.604;18.226;2023-01-10T03:50:21;17.47;;;12.07;;
17404;SDS011;8820;54.604;18.226;2023-01-10T03:52:53;17.60;;;11.70;;
17404;SDS011;8820;54.604;18.226;2023-01-10T03:55:25;19.53;;;11.80;;
17404;SDS011;8820;54.604;18.226;2023-01-10T03:57:55;16.63;;;11.43;;
17404;SDS011;8820;54.604;18.226;2023-01-10T04:00:24;15.23;;;11.23;;
17404;SDS011;8820;54.604;18.226;2023-01-10T04:02:53;15.73;;;11.30;;
17404;SDS011;8820;54.604;18.226;2023-01-10T04:05:23;15.87;;;12.30;;
17404;SDS011;8820;54.604;18.226;2023-01-10T04:07:54;16.97;;;11.33;;
17404;SDS011;8820;54.604;18.226;2023-01-10T04:10:22;20.57;;;11.70;;
17404;SDS011;8820;54.604;18.226;2023-01-10T04:12:52;18.57;;;11.23;;
17404;SDS011;8820;54.604;18.226;2023-01-10T04:15:21;18.33;;;12.43;;
17404;SDS011;8820;54.604;18.226;2023-01-10T04:17:50;20.90;;;13.37;;
17404;SDS011;8820;54.604;18.226;2023-01-10T04:20:19;15.47;;;11.13;;
17404;SDS011;8820;54.604;18.226;2023-01-10T04:22:47;20.43;;;12.43;;
17404;SDS011;8820;54.604;18.226;2023-01-10T04:25:18;20.23;;;11.70;;
17404;SDS011;8820;54.604;18.226;2023-01-10T04:27:47;18.87;;;11.60;;
17404;SDS011;8820;54.604;18.226;2023-01-10T04:30:17;19.93;;;11.93;;
17404;SDS011;8820;54.604;18.226;2023-01-10T04:32:46;17.43;;;12.07;;
17404;SDS011;8820;54.604;18.226;2023-01-10T04:35:15;17.07;;;11.43;;
17404;SDS011;8820;54.604;18.226;2023-01-10T04:37:44;18.53;;;10.57;;
17404;SDS011;8820;54.604;18.226;2023-01-10T04:40:13;19.97;;;11.47;;
17404;SDS011;8820;54.604;18.226;2023-01-10T04:42:46;20.80;;;11.17;;
17404;SDS011;8820;54.604;18.226;2023-01-10T04:45:15;15.73;;;10.63;;
17404;SDS011;8820;54.604;18.226;2023-01-10T04:47:48;16.47;;;11.00;;
17404;SDS011;8820;54.604;18.226;2023-01-10T04:50:17;15.17;;;9.83;;
17404;SDS011;8820;54.604;18.226;2023-01-10T04:52:46;14.43;;;10.63;;
17404;SDS011;8820;54.604;18.226;2023-01-10T04:55:15;16.00;;;9.67;;
17404;SDS011;8820;54.604;18.226;2023-01-10T04:57:48;13.33;;;9.97;;
17404;SDS011;8820;54.604;18.226;2023-01-10T05:00:17;13.70;;;9.73;;
17404;SDS011;8820;54.604;18.226;2023-01-10T05:02:46;17.37;;;10.10;;
17404;SDS011;8820;54.604;18.226;2023-01-10T05:05:15;15.20;;;9.80;;
17404;SDS011;8820;54.604;18.226;2023-01-10T05:07:44;16.70;;;9.77;;
17404;SDS011;8820;54.604;18.226;2023-01-10T05:10:14;17.33;;;9.83;;
17404;SDS011;8820;54.604;18.226;2023-01-10T05:12:44;15.53;;;9.37;;
17404;SDS011;8820;54.604;18.226;2023-01-10T05:15:14;13.60;;;9.60;;
17404;SDS011;8820;54.604;18.226;2023-01-10T05:17:43;14.50;;;9.40;;
17404;SDS011;8820;54.604;18.226;2023-01-10T05:20:12;12.20;;;9.13;;
17404;SDS011;8820;54.604;18.226;2023-01-10T05:22:41;16.67;;;9.67;;
17404;SDS011;8820;54.604;18.226;2023-01-10T05:25:10;17.53;;;10.00;;
17404;SDS011;8820;54.604;18.226;2023-01-10T05:27:39;15.33;;;9.90;;
17404;SDS011;8820;54.604;18.226;2023-01-10T05:30:10;17.77;;;10.50;;
17404;SDS011;8820;54.604;18.226;2023-01-10T05:32:41;15.43;;;10.70;;
17404;SDS011;8820;54.604;18.226;2023-01-10T05:35:10;12.83;;;9.07;;
17404;SDS011;8820;54.604;18.226;2023-01-10T05:37:39;22.27;;;10.93;;
17404;SDS011;8820;54.604;18.226;2023-01-10T05:40:08;14.30;;;10.10;;
17404;SDS011;8820;54.604;18.226;2023-01-10T05:42:53;16.00;;;10.90;;
17404;SDS011;8820;54.604;18.226;2023-01-10T05:45:22;16.23;;;10.00;;
17404;SDS011;8820;54.604;18.226;2023-01-10T05:47:52;15.33;;;9.80;;
17404;SDS011;8820;54.604;18.226;2023-01-10T05:50:21;12.57;;;9.53;;
17404;SDS011;8820;54.604;18.226;2023-01-10T05:52:50;12.10;;;9.43;;
17404;SDS011;8820;54.604;18.226;2023-01-10T05:55:18;12.90;;;8.87;;
17404;SDS011;8820;54.604;18.226;2023-01-10T05:57:47;16.63;;;8.83;;
17404;SDS011;8820;54.604;18.226;2023-01-10T06:00:16;17.10;;;9.87;;
17404;SDS011;8820;54.604;18.226;2023-01-10T06:02:46;14.17;;;10.03;;
17404;SDS011;8820;54.604;18.226;2023-01-10T06:05:16;12.13;;;9.50;;
17404;SDS011;8820;54.604;18.226;2023-01-10T06:07:45;12.33;;;9.23;;
17404;SDS011;8820;54.604;18.226;2023-01-10T06:10:14;15.27;;;9.57;;
17404;SDS011;8820;54.604;18.226;2023-01-10T06:12:43;14.80;;;9.67;;
17404;SDS011;8820;54.604;18.226;2023-01-10T06:15:15;15.13;;;9.23;;
17404;SDS011;8820;54.604;18.226;2023-01-10T06:17:44;17.37;;;9.33;;
17404;SDS011;8820;54.604;18.226;2023-01-10T06:20:13;16.73;;;9.57;;
17404;SDS011;8820;54.604;18.226;2023-01-10T06:22:43;12.73;;;9.03;;
17404;SDS011;8820;54.604;18.226;2023-01-10T06:25:12;12.63;;;9.23;;
17404;SDS011;8820;54.604;18.226;2023-01-10T06:27:41;13.17;;;8.97;;
17404;SDS011;8820;54.604;18.226;2023-01-10T06:30:11;13.93;;;10.00;;
17404;SDS011;8820;54.604;18.226;2023-01-10T06:32:40;16.43;;;9.47;;
17404;SDS011;8820;54.604;18.226;2023-01-10T06:35:09;16.00;;;10.73;;
17404;SDS011;8820;54.604;18.226;2023-01-10T06:37:38;15.80;;;9.57;;
17404;SDS011;8820;54.604;18.226;2023-01-10T06:40:09;19.43;;;11.13;;
17404;SDS011;8820;54.604;18.226;2023-01-10T06:42:39;23.37;;;11.60;;
17404;SDS011;8820;54.604;18.226;2023-01-10T06:45:08;25.90;;;11.90;;
17404;SDS011;8820;54.604;18.226;2023-01-10T06:47:38;20.33;;;12.07;;
17404;SDS011;8820;54.604;18.226;2023-01-10T06:50:08;22.47;;;12.13;;
17404;SDS011;8820;54.604;18.226;2023-01-10T06:52:37;19.77;;;13.47;;
17404;SDS011;8820;54.604;18.226;2023-01-10T06:55:09;25.00;;;12.47;;
17404;SDS011;8820;54.604;18.226;2023-01-10T06:57:41;27.13;;;13.43;;
17404;SDS011;8820;54.604;18.226;2023-01-10T07:00:10;23.30;;;11.77;;
17404;SDS011;8820;54.604;18.226;2023-01-10T07:02:39;19.57;;;10.80;;
17404;SDS011;8820;54.604;18.226;2023-01-10T07:05:08;17.73;;;12.57;;
17404;SDS011;8820;54.604;18.226;2023-01-10T07:07:37;19.10;;;11.47;;
17404;SDS011;8820;54.604;18.226;2023-01-10T07:10:06;20.20;;;10.97;;
17404;SDS011;8820;54.604;18.226;2023-01-10T07:12:38;17.43;;;10.97;;
17404;SDS011;8820;54.604;18.226;2023-01-10T07:15:07;17.17;;;11.80;;
17404;SDS011;8820;54.604;18.226;2023-01-10T07:17:37;20.77;;;11.60;;
17404;SDS011;8820;54.604;18.226;2023-01-10T07:20:06;18.50;;;11.43;;
17404;SDS011;8820;54.604;18.226;2023-01-10T07:22:36;20.50;;;11.80;;
17404;SDS011;8820;54.604;18.226;2023-01-10T07:25:05;27.17;;;13.23;;
17404;SDS011;8820;54.604;18.226;2023-01-10T07:27:36;19.03;;;11.43;;
17404;SDS011;8820;54.604;18.226;2023-01-10T07:30:09;19.53;;;11.70;;
17404;SDS011;8820;54.604;18.226;2023-01-10T07:32:38;18.13;;;11.47;;
17404;SDS011;8820;54.604;18.226;2023-01-10T07:35:07;21.07;;;11.03;;
17404;SDS011;8820;54.604;18.226;2023-01-10T07:37:36;18.77;;;10.80;;
17404;SDS011;8820;54.604;18.226;2023-01-10T07:40:06;19.73;;;12.23;;
17404;SDS011;8820;54.604;18.226;2023-01-10T07:42:38;17.13;;;12.07;;
17404;SDS011;8820;54.604;18.226;2023-01-10T07:45:07;22.00;;;12.67;;
17404;SDS011;8820;54.604;18.226;2023-01-10T07:47:36;21.70;;;13.47;;
17404;SDS011;8820;54.604;18.226;2023-01-10T07:50:06;18.27;;;12.80;;
17404;SDS011;8820;54.604;18.226;2023-01-10T07:52:36;24.53;;;11.47;;
17404;SDS011;8820;54.604;18.226;2023-01-10T07:55:05;22.20;;;13.27;;
17404;SDS011;8820;54.604;18.226;2023-01-10T07:57:35;22.10;;;13.23;;
17404;SDS011;8820;54.604;18.226;2023-01-10T08:00:05;24.57;;;14.10;;
17404;SDS011;8820;54.604;18.226;2023-01-10T08:02:35;24.17;;;14.53;;
17404;SDS011;8820;54.604;18.226;2023-01-10T08:05:04;24.30;;;14.13;;
17404;SDS011;8820;54.604;18.226;2023-01-10T08:07:33;25.63;;;14.33;;
17404;SDS011;8820;54.604;18.226;2023-01-10T08:10:02;22.23;;;13.40;;
17404;SDS011;8820;54.604;18.226;2023-01-10T08:12:31;31.60;;;20.63;;
17404;SDS011;8820;54.604;18.226;2023-01-10T08:15:00;37.17;;;22.50;;
17404;SDS011;8820;54.604;18.226;2023-01-10T08:17:32;26.70;;;16.50;;
17404;SDS011;8820;54.604;18.226;2023-01-10T08:20:02;26.30;;;14.00;;
17404;SDS011;8820;54.604;18.226;2023-01-10T08:22:31;20.07;;;12.53;;
17404;SDS011;8820;54.604;18.226;2023-01-10T08:25:00;27.20;;;15.47;;
17404;SDS011;8820;54.604;18.226;2023-01-10T08:27:29;33.97;;;17.50;;
17404;SDS011;8820;54.604;18.226;2023-01-10T08:29:58;20.07;;;13.83;;
17404;SDS011;8820;54.604;18.226;2023-01-10T08:32:26;20.87;;;11.93;;
17404;SDS011;8820;54.604;18.226;2023-01-10T08:34:57;18.77;;;13.00;;
17404;SDS011;8820;54.604;18.226;2023-01-10T08:37:26;25.00;;;13.83;;
17404;SDS011;8820;54.604;18.226;2023-01-10T08:39:54;27.00;;;14.07;;
17404;SDS011;8820;54.604;18.226;2023-01-10T08:42:23;28.40;;;13.53;;
17404;SDS011;8820;54.604;18.226;2023-01-10T08:44:52;26.10;;;12.87;;
17404;SDS011;8820;54.604;18.226;2023-01-10T08:47:21;22.57;;;11.73;;
17404;SDS011;8820;54.604;18.226;2023-01-10T08:49:50;16.57;;;11.00;;
17404;SDS011;8820;54.604;18.226;2023-01-10T08:52:21;24.97;;;14.10;;
17404;SDS011;8820;54.604;18.226;2023-01-10T08:54:50;26.40;;;12.50;;
17404;SDS011;8820;54.604;18.226;2023-01-10T08:57:18;19.83;;;11.97;;
17404;SDS011;8820;54.604;18.226;2023-01-10T08:59:48;20.43;;;12.90;;
17404;SDS011;8820;54.604;18.226;2023-01-10T09:02:16;22.90;;;12.97;;
17404;SDS011;8820;54.604;18.226;2023-01-10T09:04:45;20.50;;;13.83;;
17404;SDS011;8820;54.604;18.226;2023-01-10T09:07:14;22.37;;;12.77;;
17404;SDS011;8820;54.604;18.226;2023-01-10T09:09:45;32.57;;;14.57;;
17404;SDS011;8820;54.604;18.226;2023-01-10T09:12:13;22.30;;;13.90;;
17404;SDS011;8820;54.604;18.226;2023-01-10T09:15:00;24.93;;;14.97;;
17404;SDS011;8820;54.604;18.226;2023-01-10T09:17:29;31.73;;;18.30;;
17404;SDS011;8820;54.604;18.226;2023-01-10T09:19:57;28.73;;;18.43;;
17404;SDS011;8820;54.604;18.226;2023-01-10T09:22:26;29.63;;;20.17;;
17404;SDS011;8820;54.604;18.226;2023-01-10T09:24:56;34.33;;;21.63;;
17404;SDS011;8820;54.604;18.226;2023-01-10T09:27:25;35.60;;;22.17;;
17404;SDS011;8820;54.604;18.226;2023-01-10T09:29:54;27.27;;;18.37;;
17404;SDS011;8820;54.604;18.226;2023-01-10T09:32:23;35.60;;;20.73;;
17404;SDS011;8820;54.604;18.226;2023-01-10T09:34:52;31.23;;;20.07;;
17404;SDS011;8820;54.604;18.226;2023-01-10T09:37:21;28.50;;;15.27;;
17404;SDS011;8820;54.604;18.226;2023-01-10T09:39:49;32.00;;;19.57;;
17404;SDS011;8820;54.604;18.226;2023-01-10T09:42:24;29.23;;;18.93;;
17404;SDS011;8820;54.604;18.226;2023-01-10T09:45:05;25.83;;;15.40;;
17404;SDS011;8820;54.604;18.226;2023-01-10T09:47:44;22.30;;;14.40;;
17404;SDS011;8820;54.604;18.226;2023-01-10T09:50:22;23.43;;;13.83;;
17404;SDS011;8820;54.604;18.226;2023-01-10T09:53:01;20.20;;;13.83;;
17404;SDS011;8820;54.604;18.226;2023-01-10T09:55:35;25.33;;;15.47;;
17404;SDS011;8820;54.604;18.226;2023-01-10T09:58:10;22.83;;;14.00;;
17404;SDS011;8820;54.604;18.226;2023-01-10T10:00:42;26.93;;;14.43;;
17404;SDS011;8820;54.604;18.226;2023-01-10T10:03:18;23.17;;;13.33;;
17404;SDS011;8820;54.604;18.226;2023-01-10T10:05:51;26.57;;;13.93;;
17404;SDS011;8820;54.604;18.226;2023-01-10T10:08:32;25.23;;;15.00;;
17404;SDS011;8820;54.604;18.226;2023-01-10T10:11:06;25.27;;;13.33;;
17404;SDS011;8820;54.604;18.226;2023-01-10T10:13:53;19.90;;;13.00;;
17404;SDS011;8820;54.604;18.226;2023-01-10T10:16:31;19.53;;;11.67;;
17404;SDS011;8820;54.604;18.226;2023-01-10T10:19:22;40.77;;;24.97;;
17404;SDS011;8820;54.604;18.226;2023-01-10T10:22:01;20.40;;;13.63;;
17404;SDS011;8820;54.604;18.226;2023-01-10T10:24:39;18.20;;;12.93;;
17404;SDS011;8820;54.604;18.226;2023-01-10T10:27:19;21.67;;;13.73;;
17404;SDS011;8820;54.604;18.226;2023-01-10T10:29:57;24.57;;;15.87;;
17404;SDS011;8820;54.604;18.226;2023-01-10T10:32:52;23.53;;;13.33;;
17404;SDS011;8820;54.604;18.226;2023-01-10T10:35:33;19.73;;;13.37;;
17404;SDS011;8820;54.604;18.226;2023-01-10T10:38:08;20.97;;;13.10;;
17404;SDS011;8820;54.604;18.226;2023-01-10T10:40:41;20.90;;;12.90;;
17404;SDS011;8820;54.604;18.226;2023-01-10T10:43:14;20.23;;;12.97;;
17404;SDS011;8820;54.604;18.226;2023-01-10T10:45:50;18.13;;;12.80;;
17404;SDS011;8820;54.604;18.226;2023-01-10T10:48:23;17.77;;;13.23;;
17404;SDS011;8820;54.604;18.226;2023-01-10T10:50:58;18.43;;;13.93;;
17404;SDS011;8820;54.604;18.226;2023-01-10T10:53:32;21.17;;;13.97;;
17404;SDS011;8820;54.604;18.226;2023-01-10T10:56:02;59.27;;;36.43;;
17404;SDS011;8820;54.604;18.226;2023-01-10T10:58:33;60.87;;;38.30;;
17404;SDS011;8820;54.604;18.226;2023-01-10T11:01:04;56.40;;;33.73;;
17404;SDS011;8820;54.604;18.226;2023-01-10T11:03:36;23.97;;;15.43;;
17404;SDS011;8820;54.604;18.226;2023-01-10T11:06:09;26.20;;;15.63;;
17404;SDS011;8820;54.604;18.226;2023-01-10T11:08:38;27.97;;;17.47;;
17404;SDS011;8820;54.604;18.226;2023-01-10T11:11:14;19.07;;;14.40;;
17404;SDS011;8820;54.604;18.226;2023-01-10T11:13:47;23.63;;;15.10;;
17404;SDS011;8820;54.604;18.226;2023-01-10T11:19:14;32.17;;;18.43;;
17404;SDS011;8820;54.604;18.226;2023-01-10T11:21:54;36.43;;;21.07;;
17404;SDS011;8820;54.604;18.226;2023-01-10T11:24:28;29.20;;;18.93;;
17404;SDS011;8820;54.604;18.226;2023-01-10T11:27:00;28.53;;;18.23;;
17404;SDS011;8820;54.604;18.226;2023-01-10T11:29:35;31.70;;;18.23;;
17404;SDS011;8820;54.604;18.226;2023-01-10T11:32:10;29.07;;;19.20;;
17404;SDS011;8820;54.604;18.226;2023-01-10T11:34:41;28.40;;;18.80;;
17404;SDS011;8820;54.604;18.226;2023-01-10T11:37:19;33.53;;;19.77;;
17404;SDS011;8820;54.604;18.226;2023-01-10T11:40:02;30.10;;;19.73;;
17404;SDS011;8820;54.604;18.226;2023-01-10T11:42:46;32.63;;;18.77;;
17404;SDS011;8820;54.604;18.226;2023-01-10T11:45:22;34.50;;;19.83;;
17404;SDS011;8820;54.604;18.226;2023-01-10T11:48:06;34.43;;;18.47;;
17404;SDS011;8820;54.604;18.226;2023-01-10T11:50:37;34.33;;;19.90;;
17404;SDS011;8820;54.604;18.226;2023-01-10T11:53:25;29.80;;;19.23;;
17404;SDS011;8820;54.604;18.226;2023-01-10T11:56:01;32.43;;;19.07;;
17404;SDS011;8820;54.604;18.226;2023-01-10T11:58:30;33.70;;;20.87;;
17404;SDS011;8820;54.604;18.226;2023-01-10T12:01:01;39.83;;;23.17;;
17404;SDS011;8820;54.604;18.226;2023-01-10T12:03:32;41.63;;;22.60;;
17404;SDS011;8820;54.604;18.226;2023-01-10T12:06:06;38.67;;;23.30;;
17404;SDS011;8820;54.604;18.226;2023-01-10T12:08:41;38.33;;;22.30;;
17404;SDS011;8820;54.604;18.226;2023-01-10T12:11:21;34.03;;;20.40;;
17404;SDS011;8820;54.604;18.226;2023-01-10T12:13:54;38.13;;;23.67;;
17404;SDS011;8820;54.604;18.226;2023-01-10T12:16:24;40.60;;;23.53;;
17404;SDS011;8820;54.604;18.226;2023-01-10T12:18:56;41.57;;;24.33;;
17404;SDS011;8820;54.604;18.226;2023-01-10T12:21:28;39.20;;;22.67;;
17404;SDS011;8820;54.604;18.226;2023-01-10T12:24:01;36.93;;;23.17;;
17404;SDS011;8820;54.604;18.226;2023-01-10T12:26:33;37.50;;;25.40;;
17404;SDS011;8820;54.604;18.226;2023-01-10T12:29:05;33.40;;;21.53;;
17404;SDS011;8820;54.604;18.226;2023-01-10T12:31:38;29.50;;;19.27;;
17404;SDS011;8820;54.604;18.226;2023-01-10T12:34:11;29.30;;;19.83;;
17404;SDS011;8820;54.604;18.226;2023-01-10T12:36:52;30.67;;;19.30;;
17404;SDS011;8820;54.604;18.226;2023-01-10T12:39:29;31.60;;;19.73;;
17404;SDS011;8820;54.604;18.226;2023-01-10T12:42:09;34.70;;;19.53;;
17404;SDS011;8820;54.604;18.226;2023-01-10T12:44:59;32.73;;;19.63;;
17404;SDS011;8820;54.604;18.226;2023-01-10T12:47:33;30.60;;;19.87;;
17404;SDS011;8820;54.604;18.226;2023-01-10T12:50:12;33.93;;;19.43;;
17404;SDS011;8820;54.604;18.226;2023-01-10T12:52:44;35.23;;;19.67;;
17404;SDS011;8820;54.604;18.226;2023-01-10T12:55:16;25.70;;;19.33;;
17404;SDS011;8820;54.604;18.226;2023-01-10T12:57:47;30.17;;;19.20;;
17404;SDS011;8820;54.604;18.226;2023-01-10T13:00:20;32.33;;;20.37;;
17404;SDS011;8820;54.604;18.226;2023-01-10T13:02:51;35.63;;;21.53;;
17404;SDS011;8820;54.604;18.226;2023-01-10T13:05:24;38.80;;;22.37;;
17404;SDS011;8820;54.604;18.226;2023-01-10T13:07:57;31.53;;;21.33;;
17404;SDS011;8820;54.604;18.226;2023-01-10T13:10:30;34.33;;;21.60;;
17404;SDS011;8820;54.604;18.226;2023-01-10T13:13:00;33.63;;;20.87;;
17404;SDS011;8820;54.604;18.226;2023-01-10T13:15:37;41.77;;;22.53;;
17404;SDS011;8820;54.604;18.226;2023-01-10T13:18:16;43.57;;;24.60;;
17404;SDS011;8820;54.604;18.226;2023-01-10T13:20:59;38.10;;;24.67;;
17404;SDS011;8820;54.604;18.226;2023-01-10T13:23:30;33.50;;;23.20;;
17404;SDS011;8820;54.604;18.226;2023-01-10T13:26:02;37.00;;;22.33;;
17404;SDS011;8820;54.604;18.226;2023-01-10T13:28:35;62.17;;;35.47;;
17404;SDS011;8820;54.604;18.226;2023-01-10T13:31:06;40.90;;;26.07;;
17404;SDS011;8820;54.604;18.226;2023-01-10T13:33:50;47.20;;;28.43;;
17404;SDS011;8820;54.604;18.226;2023-01-10T13:36:24;38.50;;;22.83;;
17404;SDS011;8820;54.604;18.226;2023-01-10T13:38:55;37.10;;;23.10;;
17404;SDS011;8820;54.604;18.226;2023-01-10T13:42:08;39.60;;;23.00;;
17404;SDS011;8820;54.604;18.226;2023-01-10T13:48:02;41.47;;;23.57;;
17404;SDS011;8820;54.604;18.226;2023-01-10T13:50:50;39.40;;;22.63;;
17404;SDS011;8820;54.604;18.226;2023-01-10T13:53:41;38.30;;;21.97;;
17404;SDS011;8820;54.604;18.226;2023-01-10T13:56:30;41.23;;;23.80;;
17404;SDS011;8820;54.604;18.226;2023-01-10T13:59:08;46.90;;;24.97;;
17404;SDS011;8820;54.604;18.226;2023-01-10T14:01:57;41.43;;;21.73;;
17404;SDS011;8820;54.604;18.226;2023-01-10T14:04:46;46.63;;;24.70;;
17404;SDS011;8820;54.604;18.226;2023-01-10T14:07:22;38.43;;;21.90;;
17404;SDS011;8820;54.604;18.226;2023-01-10T14:09:59;38.10;;;21.60;;
17404;SDS011;8820;54.604;18.226;2023-01-10T14:12:31;39.67;;;21.93;;
17404;SDS011;8820;54.604;18.226;2023-01-10T14:15:04;41.07;;;21.63;;
17404;SDS011;8820;54.604;18.226;2023-01-10T14:17:52;40.93;;;21.73;;
17404;SDS011;8820;54.604;18.226;2023-01-10T14:20:24;33.73;;;21.63;;
17404;SDS011;8820;54.604;18.226;2023-01-10T14:22:58;40.87;;;22.87;;
17404;SDS011;8820;54.604;18.226;2023-01-10T14:25:34;34.70;;;19.87;;
17404;SDS011;8820;54.604;18.226;2023-01-10T14:28:04;33.50;;;19.60;;
17404;SDS011;8820;54.604;18.226;2023-01-10T14:30:50;35.07;;;20.40;;
17404;SDS011;8820;54.604;18.226;2023-01-10T14:33:28;38.43;;;21.33;;
17404;SDS011;8820;54.604;18.226;2023-01-10T14:35:59;39.40;;;21.27;;
17404;SDS011;8820;54.604;18.226;2023-01-10T14:38:31;39.17;;;24.20;;
17404;SDS011;8820;54.604;18.226;2023-01-10T14:41:04;31.47;;;19.07;;
17404;SDS011;8820;54.604;18.226;2023-01-10T14:43:39;38.53;;;20.37;;
17404;SDS011;8820;54.604;18.226;2023-01-10T14:46:13;37.73;;;19.87;;
17404;SDS011;8820;54.604;18.226;2023-01-10T14:48:46;36.10;;;21.13;;
17404;SDS011;8820;54.604;18.226;2023-01-10T14:51:22;41.23;;;21.80;;
17404;SDS011;8820;54.604;18.226;2023-01-10T14:53:55;36.97;;;20.37;;
17404;SDS011;8820;54.604;18.226;2023-01-10T14:56:27;34.73;;;19.37;;
17404;SDS011;8820;54.604;18.226;2023-01-10T14:59:14;36.50;;;19.53;;
17404;SDS011;8820;54.604;18.226;2023-01-10T15:01:55;39.07;;;21.43;;
17404;SDS011;8820;54.604;18.226;2023-01-10T15:04:26;37.53;;;20.33;;
17404;SDS011;8820;54.604;18.226;2023-01-10T15:06:59;31.03;;;18.97;;
17404;SDS011;8820;54.604;18.226;2023-01-10T15:09:30;36.17;;;20.03;;
17404;SDS011;8820;54.604;18.226;2023-01-10T15:12:00;35.20;;;21.57;;
17404;SDS011;8820;54.604;18.226;2023-01-10T15:14:33;32.60;;;19.13;;
17404;SDS011;8820;54.604;18.226;2023-01-10T15:17:04;37.37;;;20.97;;